Time;durP1;ratioP1;P1;durP2;ratioP2;P2;SDS_P1;SDS_P2;PMS_P1;PMS_P2;Temp;Humidity;BMP_temperature;BMP_pressure;BME280_temperature;BME280_humidity;BME280_pressure;Samples;Min_cycle;Max_cycle;Signal;HPM_P1;HPM_P2
2020/12/03 00:00:36;;;;;;;11.27;8.07;;;4.60;99.90;;;;;;5073813;28;20053;-62
2020/12/03 00:03:10;;;;;;;11.38;8.40;;;4.40;99.90;;;;;;5073526;28;20055;-61
2020/12/03 00:05:36;;;;;;;11.63;8.20;;;4.10;99.90;;;;;;5073855;28;20374;-62
2020/12/03 00:08:05;;;;;;;13.02;8.95;;;4.10;99.90;;;;;;5073692;28;20075;-62
2020/12/03 00:10:38;;;;;;;13.02;7.60;;;4.10;99.90;;;;;;5073547;28;20056;-62
2020/12/03 00:13:09;;;;;;;12.32;8.55;;;4.00;99.90;;;;;;5059246;28;20053;-62
2020/12/03 00:15:36;;;;;;;12.80;8.75;;;4.00;99.90;;;;;;5053425;28;20049;-62
2020/12/03 00:18:06;;;;;;;11.27;8.45;;;4.10;99.90;;;;;;5053144;28;20103;-62
2020/12/03 00:20:37;;;;;;;12.23;8.68;;;4.20;99.90;;;;;;5053652;28;20053;-62
2020/12/03 00:23:08;;;;;;;12.02;8.32;;;4.20;99.90;;;;;;5053200;28;20469;-60
2020/12/03 00:25:35;;;;;;;12.00;7.40;;;4.20;99.90;;;;;;5053197;28;20049;-62
2020/12/03 00:28:02;;;;;;;11.18;7.30;;;4.10;99.90;;;;;;5054251;28;20458;-62
2020/12/03 00:30:31;;;;;;;12.02;7.65;;;4.00;99.90;;;;;;5053142;28;20053;-62
2020/12/03 00:32:58;;;;;;;11.20;8.13;;;4.10;99.90;;;;;;5053372;28;20057;-62
2020/12/03 00:35:28;;;;;;;11.57;8.35;;;4.10;99.90;;;;;;5059867;28;20484;-62
2020/12/03 00:37:57;;;;;;;;;;;3.80;99.90;;;;;;5073443;28;20044;-62
2020/12/03 00:40:26;;;;;;;14.90;8.00;;;3.90;99.90;;;;;;5069426;28;19920;-61
2020/12/03 00:42:58;;;;;;;12.32;7.55;;;4.00;99.90;;;;;;5052722;28;20496;-61
2020/12/03 00:45:25;;;;;;;12.23;8.57;;;4.00;99.90;;;;;;5053049;28;20506;-62
2020/12/03 00:47:52;;;;;;;11.98;8.13;;;4.00;99.90;;;;;;5052993;28;20045;-61
2020/12/03 00:50:19;;;;;;;11.07;8.15;;;4.10;99.90;;;;;;5060449;28;20130;-62
2020/12/03 00:52:46;;;;;;;12.93;8.57;;;4.10;99.90;;;;;;5072560;28;20052;-62
2020/12/03 00:55:16;;;;;;;13.35;8.23;;;4.30;99.90;;;;;;5072594;28;20044;-62
2020/12/03 00:57:42;;;;;;;12.00;8.52;;;4.30;99.90;;;;;;5072718;28;20048;-62
2020/12/03 01:00:17;;;;;;;10.27;7.43;;;4.30;99.90;;;;;;5072818;28;20140;-62
2020/12/03 01:02:44;;;;;;;11.05;8.18;;;4.40;99.90;;;;;;5072733;28;20052;-62
2020/12/03 01:05:15;;;;;;;11.30;7.78;;;4.30;99.90;;;;;;5072491;28;20044;-62
2020/12/03 01:07:43;;;;;;;12.40;8.48;;;4.30;99.90;;;;;;5072314;28;20052;-62
2020/12/03 01:10:19;;;;;;;11.75;7.93;;;4.30;99.90;;;;;;5072951;28;20071;-62
2020/12/03 01:12:46;;;;;;;11.80;8.00;;;4.40;99.90;;;;;;5072146;28;20048;-62
2020/12/03 01:15:13;;;;;;;10.27;7.50;;;4.50;99.90;;;;;;5072590;28;20101;-62
2020/12/03 01:17:41;;;;;;;10.20;7.35;;;4.40;99.90;;;;;;5072485;28;20044;-62
2020/12/03 01:20:10;;;;;;;11.98;8.07;;;4.30;99.90;;;;;;5072188;28;20053;-62
2020/12/03 01:22:37;;;;;;;11.02;8.15;;;4.30;99.90;;;;;;5072652;28;20500;-62
2020/12/03 01:25:04;;;;;;;11.60;8.55;;;4.30;99.90;;;;;;5072527;28;20045;-62
2020/12/03 01:27:32;;;;;;;9.57;7.28;;;4.30;99.90;;;;;;5072541;28;20056;-62
2020/12/03 01:29:58;;;;;;;10.68;8.15;;;4.40;99.90;;;;;;5072703;28;20477;-62
2020/12/03 01:32:25;;;;;;;10.40;7.32;;;4.40;99.90;;;;;;5072505;28;20052;-61
2020/12/03 01:34:58;;;;;;;12.65;8.75;;;4.20;99.90;;;;;;5072476;28;20044;-61
2020/12/03 01:37:25;;;;;;;10.40;7.22;;;4.40;99.90;;;;;;5076615;28;20098;-61
2020/12/03 01:39:52;;;;;;;11.50;8.35;;;4.50;99.90;;;;;;5076571;28;20045;-62
2020/12/03 01:42:19;;;;;;;11.98;8.43;;;4.30;99.90;;;;;;5076310;28;20460;-61
2020/12/03 01:44:48;;;;;;;11.85;7.22;;;4.30;99.90;;;;;;5076354;28;20049;-62
2020/12/03 01:47:23;;;;;;;11.52;8.35;;;4.30;99.90;;;;;;5076348;28;20504;-62
2020/12/03 01:49:54;;;;;;;12.27;8.48;;;4.40;99.90;;;;;;5075549;28;20128;-62
2020/12/03 01:52:21;;;;;;;11.93;8.13;;;4.40;99.90;;;;;;5073596;28;20564;-62
2020/12/03 01:54:48;;;;;;;11.02;7.70;;;4.30;99.90;;;;;;5056695;28;20060;-62
2020/12/03 01:57:36;;;;;;;15.18;8.98;;;4.30;99.90;;;;;;5056065;28;20067;-62
2020/12/03 02:00:16;;;;;;;12.40;9.23;;;4.40;99.90;;;;;;5055991;28;20048;-62
2020/12/03 02:02:47;;;;;;;14.70;9.70;;;4.50;99.90;;;;;;5056180;28;20045;-62
2020/12/03 02:05:19;;;;;;;14.05;9.60;;;4.50;99.90;;;;;;5055641;28;20096;-62
2020/12/03 02:07:47;;;;;;;13.93;9.95;;;4.50;99.90;;;;;;5035801;28;20182;-62
2020/12/03 02:10:16;;;;;;;15.48;10.88;;;4.50;99.90;;;;;;5035915;28;20077;-62
2020/12/03 02:12:45;;;;;;;13.25;9.85;;;4.60;99.90;;;;;;5035550;28;20061;-61
2020/12/03 02:15:13;;;;;;;14.35;10.52;;;4.70;99.90;;;;;;5035872;28;20053;-61
2020/12/03 02:17:40;;;;;;;14.30;9.95;;;4.80;99.90;;;;;;5035769;28;20108;-62
2020/12/03 02:20:11;;;;;;;12.93;10.00;;;4.60;99.90;;;;;;5042937;28;20071;-62
2020/12/03 02:22:39;;;;;;;12.98;9.77;;;4.50;99.90;;;;;;5055690;28;20076;-62
2020/12/03 02:25:09;;;;;;;13.75;9.85;;;4.70;99.90;;;;;;5055696;28;20049;-62
2020/12/03 02:27:37;;;;;;;14.40;9.95;;;4.80;99.90;;;;;;5055237;28;20045;-62
2020/12/03 02:30:05;;;;;;;14.80;10.43;;;4.90;99.90;;;;;;5055637;28;20486;-61
2020/12/03 02:32:32;;;;;;;14.20;10.40;;;4.90;99.90;;;;;;5055523;28;20096;-61
2020/12/03 02:35:00;;;;;;;16.23;10.43;;;4.90;99.90;;;;;;5055007;28;20422;-61
2020/12/03 02:37:28;;;;;;;12.30;8.55;;;4.90;99.90;;;;;;5055311;28;20057;-62
2020/12/03 02:40:01;;;;;;;13.00;8.85;;;4.90;99.90;;;;;;5055552;28;20045;-62
2020/12/03 02:42:27;;;;;;;15.43;10.73;;;4.80;99.90;;;;;;5055291;28;20052;-61
2020/12/03 02:44:54;;;;;;;12.32;9.43;;;4.80;99.90;;;;;;5055370;28;20060;-61
2020/12/03 02:47:23;;;;;;;13.85;9.43;;;4.80;99.90;;;;;;5054682;28;20056;-62
2020/12/03 02:49:51;;;;;;;11.40;8.52;;;4.80;99.90;;;;;;5054729;28;20044;-62
2020/12/03 02:52:20;;;;;;;13.80;8.70;;;4.70;99.90;;;;;;5055217;28;20048;-62
2020/12/03 02:54:49;;;;;;;11.70;8.55;;;4.70;99.90;;;;;;5066255;28;20155;-62
2020/12/03 02:57:16;;;;;;;13.07;9.20;;;4.80;99.90;;;;;;5075064;28;20500;-62
2020/12/03 02:59:43;;;;;;;10.32;7.40;;;4.70;99.90;;;;;;5074881;28;20047;-62
2020/12/03 03:02:10;;;;;;;10.23;6.85;;;4.80;99.90;;;;;;5075136;28;20053;-62
2020/12/03 03:04:37;;;;;;;10.98;7.57;;;4.80;99.90;;;;;;5075001;28;20053;-62
2020/12/03 03:07:04;;;;;;;12.65;8.52;;;4.90;99.90;;;;;;5074759;28;20094;-61
2020/12/03 03:09:31;;;;;;;13.05;9.10;;;4.70;99.90;;;;;;5074450;28;20048;-62
2020/12/03 03:11:58;;;;;;;9.60;7.22;;;4.80;99.90;;;;;;5074819;28;20064;-61
2020/12/03 03:14:25;;;;;;;11.88;7.85;;;4.80;99.90;;;;;;5075166;28;20059;-61
2020/12/03 03:16:52;;;;;;;11.80;8.73;;;4.70;99.90;;;;;;5074474;28;20056;-61
2020/12/03 03:19:19;;;;;;;10.23;7.18;;;4.80;99.90;;;;;;5075345;28;20047;-61
2020/12/03 03:21:49;;;;;;;12.30;8.95;;;4.90;99.90;;;;;;5074433;28;20060;-62
2020/12/03 03:24:16;;;;;;;11.35;7.55;;;5.10;99.90;;;;;;5073767;28;20052;-61
2020/12/03 03:26:44;;;;;;;10.88;7.65;;;5.00;99.90;;;;;;5074572;28;20374;-62
2020/12/03 03:29:12;;;;;;;10.73;8.23;;;4.90;99.90;;;;;;5074751;28;20044;-62
2020/12/03 03:31:39;;;;;;;10.48;7.53;;;5.10;99.90;;;;;;5074136;28;20117;-61
2020/12/03 03:34:10;;;;;;;12.70;8.13;;;5.10;99.90;;;;;;5074587;28;20132;-61
2020/12/03 03:36:36;;;;;;;11.00;7.75;;;5.00;99.90;;;;;;5074177;28;20047;-61
2020/12/03 03:39:05;;;;;;;10.13;7.72;;;4.90;99.90;;;;;;5073459;28;20477;-61
2020/12/03 03:41:32;;;;;;;11.25;8.73;;;4.70;99.90;;;;;;5061394;28;20056;-61
2020/12/03 03:43:59;;;;;;;10.90;7.95;;;4.70;99.90;;;;;;5054265;28;20409;-61
2020/12/03 03:46:28;;;;;;;10.77;6.85;;;4.50;99.90;;;;;;5053994;28;20143;-61
2020/12/03 03:48:55;;;;;;;10.45;7.72;;;4.70;99.90;;;;;;5053968;28;20041;-60
2020/12/03 03:51:24;;;;;;;13.00;7.85;;;4.70;99.90;;;;;;5054139;28;20394;-61
2020/12/03 03:53:51;;;;;;;11.80;8.60;;;4.70;99.90;;;;;;5047623;28;20084;-60
2020/12/03 03:56:18;;;;;;;10.77;7.13;;;4.50;99.90;;;;;;5052294;28;20141;-60
2020/12/03 03:58:45;;;;;;;10.27;6.85;;;4.60;99.90;;;;;;5053224;28;20099;-61
2020/12/03 04:01:11;;;;;;;11.68;7.55;;;4.50;99.90;;;;;;5054049;28;20056;-61
2020/12/03 04:03:41;;;;;;;11.10;7.35;;;4.50;99.90;;;;;;5053580;28;20049;-61
2020/12/03 04:06:08;;;;;;;;;;;4.60;99.90;;;;;;5054135;28;20052;-61
2020/12/03 04:08:34;;;;;;;10.30;7.40;;;4.60;99.90;;;;;;5053812;28;20024;-61
2020/12/03 04:11:01;;;;;;;10.35;7.88;;;4.60;99.90;;;;;;5052869;28;20053;-61
2020/12/03 04:13:28;;;;;;;10.10;7.30;;;4.60;99.90;;;;;;5053423;28;20049;-61
2020/12/03 04:15:57;;;;;;;9.88;6.60;;;4.50;99.90;;;;;;5053740;28;20387;-60
2020/12/03 04:18:26;;;;;;;10.00;6.60;;;4.50;99.90;;;;;;5053630;28;20389;-61
2020/12/03 04:20:58;;;;;;;11.77;6.95;;;4.50;99.90;;;;;;5053493;28;20056;-61
2020/12/03 04:23:25;;;;;;;11.27;8.02;;;4.50;99.90;;;;;;5053069;28;20080;-61
2020/12/03 04:25:51;;;;;;;10.65;7.45;;;4.60;99.90;;;;;;5053465;28;20063;-61
2020/12/03 04:28:19;;;;;;;11.07;7.10;;;4.60;99.90;;;;;;5053013;28;20049;-62
2020/12/03 04:30:46;;;;;;;10.80;7.07;;;4.70;99.90;;;;;;5053338;28;20049;-61
2020/12/03 04:33:13;;;;;;;10.38;7.03;;;4.70;99.90;;;;;;5053152;28;20102;-61
2020/12/03 04:35:40;;;;;;;10.18;6.03;;;4.70;99.90;;;;;;5053258;28;20460;-61
2020/12/03 04:38:09;;;;;;;10.15;7.20;;;4.70;99.90;;;;;;5052712;28;20057;-61
2020/12/03 04:40:40;;;;;;;8.93;6.53;;;4.50;99.90;;;;;;5053137;28;20397;-61
2020/12/03 04:43:16;;;;;;;9.30;6.07;;;4.60;99.90;;;;;;5052664;28;20053;-60
2020/12/03 04:45:46;;;;;;;10.75;7.18;;;4.40;99.90;;;;;;5052957;28;20045;-61
2020/12/03 04:48:31;;;;;;;9.38;6.50;;;4.40;99.90;;;;;;5053236;28;20068;-61
2020/12/03 04:51:11;;;;;;;10.90;7.38;;;4.50;99.90;;;;;;5052859;28;20045;-61
2020/12/03 04:53:54;;;;;;;13.93;8.70;;;4.60;99.90;;;;;;5052372;28;20349;-61
2020/12/03 04:56:28;;;;;;;12.50;8.35;;;4.70;99.90;;;;;;5053113;28;20397;-59
2020/12/03 04:59:11;;;;;;;11.52;8.40;;;4.60;99.90;;;;;;5053051;28;20060;-61
2020/12/03 05:02:04;;;;;;;12.25;8.15;;;4.70;99.90;;;;;;5052947;28;20056;-61
2020/12/03 05:04:38;;;;;;;13.63;8.63;;;4.70;99.90;;;;;;5052853;28;20048;-61
2020/12/03 05:07:08;;;;;;;11.43;8.30;;;4.50;99.90;;;;;;5052486;28;20095;-59
2020/12/03 05:09:40;;;;;;;;;;;4.50;99.90;;;;;;5052371;28;20104;-61
2020/12/03 05:12:13;;;;;;;12.02;7.97;;;4.40;99.90;;;;;;5052807;28;19920;-60
2020/12/03 05:14:51;;;;;;;11.60;7.82;;;4.30;99.90;;;;;;5052783;28;20049;-61
2020/12/03 05:17:38;;;;;;;11.35;7.55;;;4.30;99.90;;;;;;5052707;28;20115;-61
2020/12/03 05:20:21;;;;;;;9.13;6.50;;;4.50;99.90;;;;;;5052537;28;20057;-61
2020/12/03 05:22:55;;;;;;;8.85;6.35;;;4.50;99.90;;;;;;5051859;28;20049;-60
2020/12/03 05:25:24;;;;;;;9.30;6.47;;;4.50;99.90;;;;;;5052691;28;20510;-60
2020/12/03 05:27:54;;;;;;;9.07;6.37;;;4.60;99.90;;;;;;5052507;28;20477;-61
2020/12/03 05:30:23;;;;;;;9.05;6.32;;;4.70;99.90;;;;;;5052463;28;20509;-62
2020/12/03 05:32:50;;;;;;;8.02;5.72;;;4.70;99.90;;;;;;5052702;28;20073;-61
2020/12/03 05:35:19;;;;;;;8.77;5.50;;;4.70;99.90;;;;;;5052645;28;20200;-61
2020/12/03 05:37:48;;;;;;;7.32;5.18;;;4.50;99.90;;;;;;5051238;28;20041;-60
2020/12/03 05:40:23;;;;;;;7.03;4.63;;;4.60;99.90;;;;;;5052081;28;20461;-60
2020/12/03 05:42:52;;;;;;;7.07;5.22;;;4.50;99.90;;;;;;5052092;28;20084;-61
2020/12/03 05:45:21;;;;;;;6.83;4.83;;;4.40;99.90;;;;;;5052617;28;20141;-61
2020/12/03 05:47:52;;;;;;;6.68;4.97;;;4.40;99.90;;;;;;5052384;28;20056;-61
2020/12/03 05:50:33;;;;;;;7.53;5.20;;;4.40;99.90;;;;;;5052414;28;20416;-59
2020/12/03 05:53:04;;;;;;;7.72;5.65;;;4.30;99.90;;;;;;5057111;28;20478;-61
2020/12/03 05:55:33;;;;;;;7.60;4.85;;;4.50;99.90;;;;;;5072206;28;20059;-60
2020/12/03 05:58:15;;;;;;;7.90;4.60;;;4.30;99.90;;;;;;5071959;28;20052;-61
2020/12/03 06:00:41;;;;;;;7.95;4.97;;;4.10;99.90;;;;;;5072404;28;20096;-61
2020/12/03 06:03:59;;;;;;;8.40;4.80;;;4.30;99.90;;;;;;5072208;28;20436;-61
2020/12/03 06:07:04;;;;;;;6.53;4.25;;;4.30;99.90;;;;;;5030130;28;20053;-61
2020/12/03 06:09:45;;;;;;;7.60;4.93;;;4.40;99.90;;;;;;5051804;28;20056;-61
2020/12/03 06:12:29;;;;;;;6.50;4.53;;;4.50;99.90;;;;;;5052501;28;20545;-61
2020/12/03 06:15:08;;;;;;;9.27;5.13;;;4.40;99.90;;;;;;5072273;28;20053;-61
2020/12/03 06:17:55;;;;;;;7.43;4.90;;;4.40;99.90;;;;;;5071968;28;20053;-61
2020/12/03 06:20:39;;;;;;;7.80;5.28;;;4.50;99.90;;;;;;5071841;28;20060;-61
2020/12/03 06:23:23;;;;;;;6.40;4.53;;;4.40;99.90;;;;;;5075417;28;20048;-61
2020/12/03 06:25:56;;;;;;;7.22;5.18;;;4.30;99.90;;;;;;5075801;28;20459;-61
2020/12/03 06:28:36;;;;;;;6.68;4.68;;;4.20;99.90;;;;;;5063056;28;20417;-61
2020/12/03 06:31:17;;;;;;;6.80;5.07;;;4.10;99.90;;;;;;5055666;28;20048;-60
2020/12/03 06:33:46;;;;;;;6.78;4.63;;;4.20;99.90;;;;;;5055370;28;20049;-61
2020/12/03 06:36:39;;;;;;;8.95;5.13;;;4.00;99.90;;;;;;5055559;28;20052;-61
2020/12/03 06:39:23;;;;;;;7.55;5.03;;;4.10;99.90;;;;;;5055337;28;20041;-61
2020/12/03 06:41:55;;;;;;;8.18;5.47;;;4.10;99.90;;;;;;5064169;28;20072;-61
2020/12/03 06:44:32;;;;;;;6.43;4.13;;;4.10;99.90;;;;;;5074850;28;20406;-61
2020/12/03 06:47:44;;;;;;;7.75;5.00;;;4.20;99.90;;;;;;5067013;28;20045;-61
2020/12/03 06:50:46;;;;;;;8.15;4.85;;;4.00;99.90;;;;;;5073385;28;20094;-61
2020/12/03 06:53:37;;;;;;;7.43;4.88;;;4.20;99.90;;;;;;5074129;28;20048;-59
2020/12/03 06:56:30;;;;;;;7.28;5.05;;;4.20;99.90;;;;;;5060266;28;20053;-61
2020/12/03 06:59:31;;;;;;;8.43;5.68;;;4.20;99.90;;;;;;5065077;28;20048;-61
2020/12/03 07:02:27;;;;;;;7.32;5.20;;;4.30;99.90;;;;;;5057740;28;20099;-61
2020/12/03 07:05:40;;;;;;;9.10;5.70;;;4.10;99.90;;;;;;5062784;28;20430;-61
2020/12/03 07:08:37;;;;;;;9.20;5.88;;;4.20;99.90;;;;;;5011952;28;20046;-61
2020/12/03 07:11:41;;;;;;;9.52;6.05;;;4.20;99.90;;;;;;5014344;28;20124;-61
2020/12/03 07:14:50;;;;;;;9.25;6.30;;;4.20;99.90;;;;;;5074898;28;20052;-61
2020/12/03 07:18:04;;;;;;;7.82;5.35;;;4.30;99.90;;;;;;5000449;28;20464;-61
2020/12/03 07:21:06;;;;;;;10.00;6.15;;;4.50;99.90;;;;;;5061429;28;20389;-61
2020/12/03 07:23:40;;;;;;;8.93;6.60;;;4.20;99.90;;;;;;5026256;28;20450;-61
2020/12/03 07:26:21;;;;;;;9.07;6.35;;;4.20;99.90;;;;;;5054185;28;20048;-59
2020/12/03 07:28:49;;;;;;;8.32;6.00;;;4.20;99.90;;;;;;5063424;28;20133;-60
2020/12/03 07:31:23;;;;;;;9.48;6.63;;;4.30;99.90;;;;;;5061684;28;20128;-61
2020/12/03 07:34:12;;;;;;;9.90;4.55;;;4.20;99.90;;;;;;5053005;28;20048;-61
2020/12/03 07:36:49;;;;;;;9.93;6.70;;;4.20;99.90;;;;;;5054330;28;20151;-60
2020/12/03 07:39:22;;;;;;;9.70;6.55;;;4.20;99.90;;;;;;5054055;28;20052;-61
2020/12/03 07:41:54;;;;;;;8.77;6.13;;;4.30;99.90;;;;;;5062794;28;20052;-61
2020/12/03 07:44:33;;;;;;;10.35;6.50;;;4.20;99.90;;;;;;5071058;28;20490;-61
2020/12/03 07:47:31;;;;;;;8.32;5.70;;;4.40;99.90;;;;;;5074074;28;20052;-61
2020/12/03 07:50:00;;;;;;;8.00;5.03;;;4.30;99.90;;;;;;5065472;28;20076;-61
2020/12/03 07:52:31;;;;;;;10.38;6.60;;;4.30;99.90;;;;;;5058560;28;20051;-61
2020/12/03 07:55:29;;;;;;;8.48;6.13;;;4.40;99.90;;;;;;5058698;28;20061;-61
2020/12/03 07:57:58;;;;;;;9.95;6.18;;;4.40;99.90;;;;;;5072273;28;20052;-61
2020/12/03 08:00:51;;;;;;;10.68;7.18;;;4.50;99.90;;;;;;5073448;28;20040;-61
2020/12/03 08:03:36;;;;;;;10.15;6.30;;;4.60;99.90;;;;;;5061673;28;20059;-61
2020/12/03 08:06:12;;;;;;;8.75;6.40;;;4.80;99.90;;;;;;5046251;28;20552;-61
2020/12/03 08:08:40;;;;;;;9.55;6.10;;;4.60;99.90;;;;;;5055397;28;20228;-61
2020/12/03 08:11:38;;;;;;;8.52;6.07;;;4.70;99.90;;;;;;5059204;28;20052;-62
2020/12/03 08:14:23;;;;;;;10.38;6.60;;;4.70;99.90;;;;;;5052791;28;20485;-62
2020/12/03 08:16:49;;;;;;;7.80;5.85;;;4.40;99.90;;;;;;5070870;28;20410;-61
2020/12/03 08:19:21;;;;;;;9.65;6.65;;;4.50;99.90;;;;;;5070916;28;20078;-63
2020/12/03 08:21:49;;;;;;;8.30;6.13;;;4.70;99.90;;;;;;5077519;28;20060;-63
2020/12/03 08:24:25;;;;;;;8.25;5.88;;;4.70;99.90;;;;;;5076581;28;20515;-63
2020/12/03 08:26:56;;;;;;;9.70;5.78;;;4.90;99.90;;;;;;5062927;28;20056;-63
2020/12/03 08:29:34;;;;;;;9.60;6.53;;;4.70;99.90;;;;;;5063539;28;20048;-63
2020/12/03 08:32:00;;;;;;;8.25;5.70;;;4.80;99.90;;;;;;5070703;28;20056;-63
2020/12/03 08:34:35;;;;;;;8.00;5.38;;;4.90;99.90;;;;;;5067591;28;20071;-63
2020/12/03 08:37:03;;;;;;;7.97;6.03;;;4.70;99.90;;;;;;5069622;28;20063;-63
2020/12/03 08:39:30;;;;;;;8.38;6.20;;;4.70;99.90;;;;;;5069842;28;20040;-63
2020/12/03 08:41:58;;;;;;;8.65;5.63;;;4.90;99.90;;;;;;5067300;28;20080;-63
2020/12/03 08:44:25;;;;;;;8.63;6.45;;;4.80;99.90;;;;;;5074929;28;20052;-62
2020/12/03 08:46:53;;;;;;;7.97;5.13;;;4.80;99.90;;;;;;5063444;28;20558;-63
2020/12/03 08:49:23;;;;;;;13.68;5.93;;;4.80;99.90;;;;;;5070802;28;20040;-63
2020/12/03 08:51:53;;;;;;;7.20;5.32;;;4.80;99.90;;;;;;5068890;28;20055;-63
2020/12/03 08:54:25;;;;;;;8.68;6.45;;;4.60;99.90;;;;;;5047876;28;20057;-63
2020/12/03 08:56:57;;;;;;;7.75;5.50;;;4.80;99.90;;;;;;5050032;28;20060;-63
2020/12/03 08:59:29;;;;;;;8.02;5.60;;;4.80;99.90;;;;;;5046825;28;20049;-63
2020/12/03 09:02:07;;;;;;;8.40;5.47;;;4.80;99.90;;;;;;5049663;28;20363;-63
2020/12/03 09:04:36;;;;;;;8.40;5.95;;;4.80;99.90;;;;;;5049673;28;20414;-63
2020/12/03 09:07:07;;;;;;;9.85;6.40;;;4.70;99.90;;;;;;5048975;28;20049;-63
2020/12/03 09:09:35;;;;;;;6.63;4.93;;;4.80;99.90;;;;;;5049701;28;20063;-63
2020/12/03 09:12:02;;;;;;;7.93;5.20;;;4.80;99.90;;;;;;5043835;28;20053;-63
2020/12/03 09:14:33;;;;;;;8.38;5.95;;;4.80;99.90;;;;;;5049401;28;20127;-63
2020/12/03 09:17:05;;;;;;;8.40;5.47;;;4.80;99.90;;;;;;5049066;28;20053;-63
2020/12/03 09:19:32;;;;;;;7.68;5.13;;;4.80;99.90;;;;;;5047593;28;20045;-63
2020/12/03 09:21:59;;;;;;;8.63;6.05;;;4.80;99.90;;;;;;5048336;28;20049;-64
2020/12/03 09:24:28;;;;;;;8.88;5.97;;;4.80;99.90;;;;;;5044576;28;20049;-63
2020/12/03 09:27:02;;;;;;;8.95;6.35;;;4.70;99.90;;;;;;5048367;28;20049;-63
2020/12/03 09:29:29;;;;;;;7.85;5.05;;;4.50;99.90;;;;;;5049087;28;20049;-63
2020/12/03 09:32:00;;;;;;;8.32;5.97;;;4.50;99.90;;;;;;5048758;28;20056;-63
2020/12/03 09:34:29;;;;;;;7.30;4.95;;;4.50;99.90;;;;;;5050236;28;20048;-63
2020/12/03 09:36:58;;;;;;;8.68;6.07;;;4.40;99.90;;;;;;5049452;28;20076;-63
2020/12/03 09:39:26;;;;;;;9.18;6.28;;;4.60;99.90;;;;;;5049737;28;20128;-63
2020/12/03 09:41:54;;;;;;;7.88;5.75;;;4.70;99.90;;;;;;5049280;28;20053;-62
2020/12/03 09:44:22;;;;;;;8.77;6.10;;;4.70;99.90;;;;;;5050420;28;20053;-63
2020/12/03 09:46:51;;;;;;;7.57;5.10;;;4.70;99.90;;;;;;5049312;28;20504;-62
2020/12/03 09:49:18;;;;;;;8.63;5.80;;;4.70;99.90;;;;;;5049526;28;20083;-62
2020/12/03 09:51:45;;;;;;;9.20;6.38;;;4.50;99.90;;;;;;5049612;28;20839;-63
2020/12/03 09:54:13;;;;;;;8.73;6.07;;;4.50;99.90;;;;;;5047703;28;20151;-63
2020/12/03 09:56:40;;;;;;;7.45;4.35;;;4.40;99.90;;;;;;5050667;28;20053;-63
2020/12/03 09:59:08;;;;;;;8.27;6.07;;;4.40;99.90;;;;;;5053144;28;20052;-63
2020/12/03 10:02:09;;;;;;;8.15;5.65;;;4.40;99.90;;;;;;5052375;28;20065;-64
2020/12/03 10:05:02;;;;;;;8.63;6.22;;;4.50;99.90;;;;;;5020396;28;20045;-63
2020/12/03 10:08:04;;;;;;;9.40;5.63;;;4.50;99.90;;;;;;5047081;28;20331;-63
2020/12/03 10:10:44;;;;;;;8.07;5.45;;;4.60;99.90;;;;;;5053269;28;20041;-63
2020/12/03 10:13:26;;;;;;;11.52;6.00;;;4.60;99.90;;;;;;5052880;28;20064;-63
2020/12/03 10:16:03;;;;;;;9.20;6.00;;;4.50;99.90;;;;;;5052683;28;20048;-63
2020/12/03 10:18:51;;;;;;;10.13;6.10;;;4.70;99.90;;;;;;5053070;28;20049;-63
2020/12/03 10:21:28;;;;;;;10.88;6.45;;;4.70;99.90;;;;;;5048559;28;20079;-62
2020/12/03 10:24:06;;;;;;;9.15;6.28;;;4.70;99.90;;;;;;5053008;28;20053;-63
2020/12/03 10:26:43;;;;;;;10.10;6.97;;;4.70;99.90;;;;;;5051054;28;20052;-63
2020/12/03 10:29:48;;;;;;;9.45;6.88;;;4.80;99.90;;;;;;5051192;28;20052;-63
2020/12/03 10:32:17;;;;;;;9.43;7.05;;;4.70;99.90;;;;;;5031786;28;20040;-63
2020/12/03 10:34:47;;;;;;;9.45;6.00;;;4.80;99.90;;;;;;5053208;28;20049;-63
2020/12/03 10:37:27;;;;;;;10.07;5.53;;;4.70;99.90;;;;;;5052026;28;20112;-63
2020/12/03 10:40:02;;;;;;;10.05;7.50;;;4.80;99.90;;;;;;5052198;28;20052;-63
2020/12/03 10:42:36;;;;;;;9.02;6.45;;;5.00;99.90;;;;;;5048817;28;20132;-63
2020/12/03 10:45:07;;;;;;;7.82;6.38;;;5.10;99.90;;;;;;5051768;28;20053;-63
2020/12/03 10:47:45;;;;;;;8.75;5.93;;;5.00;99.90;;;;;;5051871;28;20047;-63
2020/12/03 10:50:17;;;;;;;10.80;6.50;;;5.00;99.90;;;;;;5052847;28;20083;-63
2020/12/03 10:52:45;;;;;;;8.63;6.00;;;5.10;99.90;;;;;;5051979;28;20502;-63
2020/12/03 10:55:17;;;;;;;7.63;6.13;;;5.20;99.90;;;;;;5071070;28;21207;-63
2020/12/03 10:57:51;;;;;;;9.27;6.50;;;5.30;99.90;;;;;;5076791;28;20072;-63
2020/12/03 11:00:21;;;;;;;9.55;5.93;;;5.50;99.90;;;;;;5064831;28;20045;-63
2020/12/03 11:02:53;;;;;;;10.30;6.65;;;5.60;99.90;;;;;;5079017;28;20048;-64
2020/12/03 11:05:19;;;;;;;9.82;6.43;;;5.70;99.90;;;;;;5092817;28;20409;-63
2020/12/03 11:07:54;;;;;;;10.25;7.03;;;5.90;99.90;;;;;;5063649;28;20051;-63
2020/12/03 11:10:21;;;;;;;9.13;6.57;;;5.70;99.90;;;;;;5059541;28;20055;-63
2020/12/03 11:12:50;;;;;;;11.38;7.03;;;5.90;99.90;;;;;;5080287;28;20044;-63
2020/12/03 11:15:20;;;;;;;8.00;5.53;;;6.00;99.90;;;;;;5067652;28;20139;-63
2020/12/03 11:18:08;;;;;;;;;;;6.00;99.90;;;;;;5072592;28;20049;-63
2020/12/03 11:20:37;;;;;;;7.97;5.90;;;6.00;99.90;;;;;;5071699;28;19931;-63
2020/12/03 11:23:19;;;;;;;7.00;5.40;;;6.10;99.90;;;;;;5081257;28;20048;-63
2020/12/03 11:25:46;;;;;;;9.38;5.65;;;6.20;99.90;;;;;;5075672;28;20055;-63
2020/12/03 11:28:29;;;;;;;6.38;5.03;;;6.00;99.90;;;;;;5069672;28;20052;-63
2020/12/03 11:31:02;;;;;;;8.85;6.00;;;5.90;99.90;;;;;;5064498;28;20507;-63
2020/12/03 11:33:30;;;;;;;7.93;5.80;;;6.10;99.90;;;;;;5071196;28;20064;-63
2020/12/03 11:36:10;;;;;;;11.20;7.13;;;6.00;99.90;;;;;;5064085;28;20512;-63
2020/12/03 11:38:38;;;;;;;6.60;5.15;;;6.20;99.90;;;;;;5071851;28;20048;-64
2020/12/03 11:41:09;;;;;;;8.18;5.55;;;6.10;99.90;;;;;;5063959;28;20049;-63
2020/12/03 11:49:08;;;;;;;8.70;5.63;;;5.90;99.90;;;;;;5064719;28;19917;-63
2020/12/03 11:51:36;;;;;;;9.52;5.88;;;5.90;99.90;;;;;;5071041;28;20040;-63
2020/12/03 11:54:05;;;;;;;7.88;5.28;;;5.80;99.90;;;;;;5067250;28;20080;-63
2020/12/03 11:56:33;;;;;;;9.32;6.68;;;5.70;99.90;;;;;;5068661;28;20511;-63
2020/12/03 11:59:16;;;;;;;8.27;5.25;;;5.80;99.90;;;;;;5071919;28;20417;-64
2020/12/03 12:01:51;;;;;;;9.32;6.18;;;6.00;99.90;;;;;;5068253;28;20127;-64
2020/12/03 12:04:22;;;;;;;8.15;6.35;;;5.90;99.90;;;;;;5070665;28;20049;-64
2020/12/03 12:06:58;;;;;;;9.48;6.10;;;6.10;99.90;;;;;;5069236;28;20049;-64
2020/12/03 12:09:32;;;;;;;9.07;6.03;;;6.20;99.90;;;;;;5064293;28;20045;-64
2020/12/03 12:11:59;;;;;;;9.02;6.10;;;6.40;99.90;;;;;;5071228;28;20197;-64
2020/12/03 12:14:25;;;;;;;7.18;4.43;;;6.30;99.90;;;;;;5067873;28;20048;-64
2020/12/03 12:16:53;;;;;;;8.43;5.53;;;6.20;99.90;;;;;;5067728;28;20171;-64
2020/12/03 12:19:25;;;;;;;9.27;5.95;;;5.80;99.90;;;;;;5071015;28;20084;-64
2020/12/03 12:21:52;;;;;;;8.48;5.95;;;5.80;99.90;;;;;;5069433;28;20068;-64
2020/12/03 12:24:19;;;;;;;9.85;6.60;;;5.90;99.90;;;;;;5074930;28;20063;-63
2020/12/03 12:26:45;;;;;;;8.88;6.43;;;6.10;99.90;;;;;;5083038;28;20048;-63
2020/12/03 12:29:14;;;;;;;7.20;5.50;;;6.20;99.90;;;;;;5078608;28;20052;-64
2020/12/03 12:31:41;;;;;;;7.55;5.53;;;6.20;99.90;;;;;;5071086;28;20048;-64
2020/12/03 12:34:07;;;;;;;9.10;5.93;;;6.10;99.90;;;;;;5070371;28;20444;-64
2020/12/03 12:36:35;;;;;;;8.52;6.38;;;6.20;99.90;;;;;;5082078;28;20051;-64
2020/12/03 12:39:02;;;;;;;8.40;6.30;;;6.20;99.90;;;;;;5081669;28;20055;-64
2020/12/03 12:41:28;;;;;;;8.18;6.00;;;6.20;99.90;;;;;;5070624;28;20044;-64
2020/12/03 12:43:55;;;;;;;7.68;5.65;;;6.00;99.90;;;;;;5069697;28;20049;-64
2020/12/03 12:46:22;;;;;;;8.70;6.03;;;5.80;99.90;;;;;;5070744;28;20106;-64
2020/12/03 12:48:49;;;;;;;7.53;5.70;;;5.90;99.90;;;;;;5078464;28;20044;-64
2020/12/03 12:51:16;;;;;;;9.40;6.10;;;6.20;99.90;;;;;;5079220;28;20044;-64
2020/12/03 12:53:46;;;;;;;8.60;5.85;;;6.00;99.90;;;;;;5066701;28;20803;-64
2020/12/03 12:56:13;;;;;;;7.70;6.25;;;5.90;99.90;;;;;;5072025;28;20062;-64
2020/12/03 12:58:40;;;;;;;7.63;5.07;;;6.00;99.90;;;;;;5075337;28;20048;-64
2020/12/03 13:01:10;;;;;;;9.18;6.07;;;5.90;99.90;;;;;;5066266;28;20044;-64
2020/12/03 13:03:36;;;;;;;7.70;5.65;;;5.80;99.90;;;;;;5070373;28;20500;-64
2020/12/03 13:06:03;;;;;;;7.78;5.50;;;5.90;99.90;;;;;;5068626;28;20061;-64
2020/12/03 13:08:31;;;;;;;8.55;5.97;;;5.80;99.90;;;;;;5074609;28;20167;-64
2020/12/03 13:10:59;;;;;;;6.80;4.10;;;5.90;99.90;;;;;;5079677;28;20110;-64
2020/12/03 13:13:29;;;;;;;9.05;5.45;;;5.70;99.90;;;;;;5066285;28;20055;-64
2020/12/03 13:15:56;;;;;;;8.00;5.95;;;5.70;99.90;;;;;;5061860;28;20056;-64
2020/12/03 13:18:22;;;;;;;6.88;4.95;;;5.80;99.90;;;;;;5070403;28;20436;-64
2020/12/03 13:20:49;;;;;;;7.88;4.72;;;5.80;99.90;;;;;;5070522;28;20041;-64
2020/12/03 13:23:16;;;;;;;7.45;4.85;;;5.70;99.90;;;;;;5068575;28;20397;-64
2020/12/03 13:25:43;;;;;;;6.57;3.75;;;5.70;99.90;;;;;;5068139;28;20467;-64
2020/12/03 13:28:11;;;;;;;7.32;5.00;;;5.60;99.90;;;;;;5060577;28;20136;-64